CDT,Max TemperatureF,Mean TemperatureF,Min TemperatureF,Max Dew PointF,MeanDew PointF,Min DewpointF,Max Humidity, Mean Humidity, Min Humidity, Max Sea Level PressureIn, Mean Sea Level PressureIn, Min Sea Level PressureIn, Max VisibilityMiles, Mean VisibilityMiles, Min VisibilityMiles, Max Wind SpeedMPH, Mean Wind SpeedMPH, Max Gust SpeedMPH,PrecipitationIn, CloudCover, Events, WindDirDegrees
2013-7-1,86,75,65,62,59,57,82,60,40,29.98,29.93,29.88,10,10,9,13,5,18,0.00,2,,335
2013-7-2,86,72,59,60,57,52,90,58,33,30.07,30.01,29.97,10,10,8,12,5,18,0.00,0,,333
2013-7-3,87,72,57,59,55,52,92,56,32,30.12,30.07,30.02,10,10,10,10,4,,0.00,0,,69
2013-7-4,88,70,57,62,57,54,90,72,39,30.07,30.04,29.97,10,10,9,7,1,,0.00,0,,322
2013-7-5,92,76,61,67,61,52,87,61,27,30.05,30.01,29.96,10,10,8,10,3,,0.00,0,,98
2013-7-6,90,78,66,70,67,64,94,75,48,30.04,30.01,29.96,10,10,10,10,3,,0.00,3,,80
2013-7-7,94,80,67,72,69,65,95,68,43,30.07,30.04,30.00,10,10,10,8,2,,0.00,1,,118
2013-7-8,95,82,70,73,71,68,94,67,45,30.13,30.08,30.04,10,10,10,10,3,17,0.00,1,,167
2013-7-9,97,86,76,73,71,70,84,59,41,30.13,30.06,29.99,10,10,10,12,7,20,0.00,2,,199
2013-7-10,100,88,74,75,71,68,89,62,37,30.05,29.97,29.90,10,10,10,16,6,23,0.08,3,Rain-Thunderstorm,256
2013-7-11,96,83,70,75,71,68,95,70,45,29.98,29.95,29.91,10,10,10,9,4,16,0.00,0,Thunderstorm,43
2013-7-12,92,80,67,66,58,52,73,50,28,30.07,30.01,29.97,10,10,10,13,7,20,0.00,1,,59
2013-7-13,88,74,61,62,59,56,85,59,35,30.05,30.02,29.97,10,10,10,12,3,,0.00,1,,69
2013-7-14,89,74,62,72,65,59,89,68,49,30.04,30.01,29.98,10,10,2,18,4,,0.01,2,Rain,67
2013-7-15,92,80,70,72,71,69,97,71,49,30.17,30.12,30.05,10,10,10,13,4,,0.00,3,,83
2013-7-16,93,83,73,73,72,69,96,69,46,30.25,30.21,30.16,10,10,10,14,5,22,0.00,0,,91
2013-7-17,95,83,71,72,70,68,93,65,40,30.31,30.24,30.17,10,10,7,13,3,16,0.00,1,,91
2013-7-18,96,84,72,72,70,67,91,73,39,30.20,30.12,30.06,10,10,6,25,4,31,0.01,1,Rain-Thunderstorm,154
2013-7-19,93,82,71,73,72,69,100,88,46,30.07,30.02,29.93,10,6,1,17,3,25,1.36,6,Rain-Thunderstorm,131
2013-7-20,94,82,71,74,71,68,100,78,45,29.98,29.93,29.85,10,9,0,10,4,,0.01,3,Fog-Rain-Thunderstorm,227
2013-7-21,93,82,72,74,72,68,100,75,48,29.97,29.91,29.87,10,10,9,15,4,22,0.01,3,Rain,186
2013-7-22,95,83,73,75,72,68,98,82,47,30.01,29.92,29.88,10,8,1,20,7,33,0.42,4,Rain-Thunderstorm,241
2013-7-23,89,80,72,75,71,68,99,77,59,29.98,29.91,29.81,10,10,6,24,7,32,0.08,5,Rain-Thunderstorm,228
2013-7-24,88,78,71,75,72,69,100,84,62,30.00,29.93,29.85,10,9,1,14,5,30,0.15,3,Rain-Thunderstorm,286
2013-7-25,84,76,68,73,67,62,99,75,50,30.09,30.06,30.00,10,10,10,8,3,,0.00,3,Rain,78
2013-7-26,75,70,64,70,67,64,100,90,68,30.08,30.04,29.98,10,9,2,8,3,,0.46,5,Rain,50
2013-7-27,87,76,66,68,66,63,100,85,47,30.03,29.99,29.92,10,9,1,6,2,,0.27,5,Rain,21
2013-7-28,86,76,65,70,66,61,93,74,54,30.06,30.02,29.98,10,10,10,10,3,,0.00,1,,58
2013-7-29,88,77,66,75,71,65,95,77,59,30.12,30.08,30.04,10,10,10,10,4,,0.00,3,Rain,107
2013-7-30,86,81,76,75,73,71,93,78,66,30.09,30.05,30.01,10,10,10,13,5,,0.00,3,Rain,187
2013-7-31,91,82,74,79,74,70,99,81,61,30.07,30.01,29.93,10,9,1,16,5,29,0.51,4,Rain-Thunderstorm,278